Time;durP1;ratioP1;P1;durP2;ratioP2;P2;SDS_P1;SDS_P2;PMS_P1;PMS_P2;Temp;Humidity;BMP_temperature;BMP_pressure;BME280_temperature;BME280_humidity;BME280_pressure;Samples;Min_cycle;Max_cycle;Signal;HPM_P1;HPM_P2
2022/04/05 00:02:20;;;;;;;;;;;5.40;84.80;;;;;;5103133;28;20119;-66
2022/04/05 00:04:46;;;;;;;;;;;5.50;84.80;;;;;;5103163;28;19958;-66
2022/04/05 00:07:11;;;;;;;;;;;5.50;84.90;;;;;;5102862;28;19916;-66
2022/04/05 00:09:37;;;;;;;;;;;5.40;85.00;;;;;;5103298;28;19923;-65
2022/04/05 00:12:03;;;;;;;;;;;5.40;84.90;;;;;;5102916;28;19908;-66
2022/04/05 00:14:29;;;;;;;;;;;5.40;84.80;;;;;;5103071;28;19912;-66
2022/04/05 00:16:54;;;;;;;;;;;5.40;85.00;;;;;;5103146;28;19972;-66
2022/04/05 00:19:21;;;;;;;;;;;5.40;84.90;;;;;;5102943;28;19912;-66
2022/04/05 00:21:48;;;;;;;;;;;5.50;84.90;;;;;;5102582;28;19916;-66
2022/04/05 00:24:17;;;;;;;;;;;5.40;84.90;;;;;;5102924;28;20199;-66
2022/04/05 00:26:42;;;;;;;;;;;5.40;85.00;;;;;;5103158;28;19916;-65
2022/04/05 00:29:08;;;;;;;;;;;5.40;85.00;;;;;;5102844;28;20337;-65
2022/04/05 00:31:34;;;;;;;;;;;5.50;85.00;;;;;;5102673;28;19991;-66
2022/04/05 00:34:00;;;;;;;;;;;5.40;84.90;;;;;;5102720;28;19915;-66
2022/04/05 00:36:25;;;;;;;;;;;5.40;84.80;;;;;;5101982;28;19975;-65
2022/04/05 00:38:51;;;;;;;;;;;5.50;84.70;;;;;;5102663;28;19910;-65
2022/04/05 00:41:17;;;;;;;;;;;5.40;84.80;;;;;;5102561;28;19923;-66
2022/04/05 00:43:42;;;;;;;;;;;5.40;84.90;;;;;;5084799;28;19916;-65
2022/04/05 00:46:08;;;;;;;;;;;5.40;85.60;;;;;;5102761;28;20174;-66
2022/04/05 00:48:49;;;;;;;;;;;5.40;85.00;;;;;;5102834;28;19951;-65
2022/04/05 00:51:16;;;;;;;;;;;5.40;85.10;;;;;;5102538;28;19908;-65
2022/04/05 00:53:42;;;;;;;;;;;5.40;84.90;;;;;;5102370;28;19915;-66
2022/04/05 00:56:08;;;;;;;;;;;5.40;84.50;;;;;;5102630;28;19908;-65
2022/04/05 00:58:34;;;;;;;;;;;5.50;84.20;;;;;;5084574;28;19965;-65
2022/04/05 01:00:59;;;;;;;;;;;5.40;84.40;;;;;;5084359;28;19908;-66
2022/04/05 01:03:26;;;;;;;;;;;5.40;83.80;;;;;;5102501;28;19908;-66
2022/04/05 01:05:51;;;;;;;;;;;5.40;84.00;;;;;;5103628;28;19913;-66
2022/04/05 01:08:18;;;;;;;;;;;5.50;84.10;;;;;;5106450;28;20001;-66
2022/04/05 01:10:44;;;;;;;;;;;5.50;84.00;;;;;;5088660;28;19915;-66
2022/04/05 01:13:09;;;;;;;;;;;5.50;83.60;;;;;;5088775;28;19930;-66
2022/04/05 01:15:35;;;;;;;;;;;5.50;83.60;;;;;;5106559;28;19987;-66
2022/04/05 01:18:01;;;;;;;;;;;5.50;83.40;;;;;;5106563;28;19912;-66
2022/04/05 01:20:26;;;;;;;;;;;5.50;83.60;;;;;;5071780;28;19915;-66
2022/04/05 01:22:54;;;;;;;;;;;5.50;83.40;;;;;;5106052;28;20211;-66
2022/04/05 01:25:19;;;;;;;;;;;5.50;83.20;;;;;;5106311;28;19912;-66
2022/04/05 01:27:45;;;;;;;;;;;5.50;83.10;;;;;;5106354;28;19914;-66
2022/04/05 01:30:11;;;;;;;;;;;5.50;83.30;;;;;;5106140;28;19983;-67
2022/04/05 01:32:37;;;;;;;;;;;5.50;82.80;;;;;;5105967;28;19916;-66
2022/04/05 01:35:05;;;;;;;;;;;5.50;82.70;;;;;;5088389;28;19931;-66
2022/04/05 01:37:32;;;;;;;;;;;5.60;82.80;;;;;;5114483;22;20115;-68
2022/04/05 01:39:57;;;;;;;;;;;5.50;82.70;;;;;;5085710;28;19987;-68
2022/04/05 01:42:23;;;;;;;;;;;5.50;82.90;;;;;;5085569;28;19975;-68
2022/04/05 01:44:49;;;;;;;;;;;5.60;82.90;;;;;;5085764;28;19912;-68
2022/04/05 01:47:15;;;;;;;;;;;5.60;82.80;;;;;;5085607;28;19917;-67
2022/04/05 01:49:42;;;;;;;;;;;5.60;83.20;;;;;;5083821;28;19923;-69
2022/04/05 01:52:09;;;;;;;;;;;5.60;83.40;;;;;;5084237;28;19984;-69
2022/04/05 01:54:34;;;;;;;;;;;5.60;83.60;;;;;;5084336;28;19908;-69
2022/04/05 01:57:00;;;;;;;;;;;5.60;84.00;;;;;;5085457;28;19923;-69
2022/04/05 01:59:27;;;;;;;;;;;5.50;84.50;;;;;;5084344;28;19948;-69
2022/04/05 02:01:53;;;;;;;;;;;5.50;85.00;;;;;;5084219;28;19909;-68
2022/04/05 02:04:19;;;;;;;;;;;5.50;85.80;;;;;;5085347;28;19913;-68
2022/04/05 02:06:45;;;;;;;;;;;5.50;86.20;;;;;;5085448;28;20114;-68
2022/04/05 02:09:14;;;;;;;;;;;5.40;87.00;;;;;;5085051;28;19930;-68
2022/04/05 02:11:40;;;;;;;;;;;5.40;87.50;;;;;;5085077;28;20146;-68
2022/04/05 02:14:06;;;;;;;;;;;5.40;87.10;;;;;;5085230;28;19916;-68
2022/04/05 02:16:32;;;;;;;;;;;5.30;87.50;;;;;;5084885;28;20230;-68
2022/04/05 02:18:58;;;;;;;;;;;5.40;87.80;;;;;;5083950;28;19916;-68
2022/04/05 02:21:24;;;;;;;;;;;5.30;88.50;;;;;;5084993;28;19909;-68
2022/04/05 02:23:49;;;;;;;;;;;5.40;88.40;;;;;;5084743;28;19919;-69
2022/04/05 02:26:15;;;;;;;;;;;5.30;88.40;;;;;;5085072;28;19909;-68
2022/04/05 02:28:41;;;;;;;;;;;5.30;88.40;;;;;;5083661;28;19953;-69
2022/04/05 02:31:07;;;;;;;;;;;5.30;88.30;;;;;;5084631;28;19908;-69
2022/04/05 02:33:33;;;;;;;;;;;5.30;89.00;;;;;;5084857;28;19947;-68
2022/04/05 02:35:58;;;;;;;;;;;5.30;88.90;;;;;;5085000;28;19915;-69
2022/04/05 02:38:24;;;;;;;;;;;5.30;89.30;;;;;;5084459;28;19912;-68
2022/04/05 02:40:50;;;;;;;;;;;5.30;89.60;;;;;;5084436;28;19954;-69
2022/04/05 02:43:16;;;;;;;;;;;5.30;90.00;;;;;;5084825;28;20220;-68
2022/04/05 02:45:41;;;;;;;;;;;5.20;90.30;;;;;;5084631;28;19912;-68
2022/04/05 02:48:07;;;;;;;;;;;5.20;90.50;;;;;;5084559;28;20007;-67
2022/04/05 02:50:32;;;;;;;;;;;5.30;90.50;;;;;;5084380;28;19916;-68
2022/04/05 02:52:58;;;;;;;;;;;5.20;90.90;;;;;;5084274;28;19908;-68
2022/04/05 02:55:24;;;;;;;;;;;5.20;91.20;;;;;;5084458;28;19908;-68
2022/04/05 02:57:50;;;;;;;;;;;5.20;91.50;;;;;;5084609;28;19908;-69
2022/04/05 03:00:16;;;;;;;;;;;5.10;91.50;;;;;;5084465;28;19916;-68
2022/04/05 03:02:41;;;;;;;;;;;5.10;91.70;;;;;;5084062;28;20227;-69
2022/04/05 03:05:08;;;;;;;;;;;5.10;91.90;;;;;;5084254;28;19912;-69
2022/04/05 03:07:37;;;;;;;;;;;5.10;92.10;;;;;;5083890;28;19931;-69
2022/04/05 03:10:03;;;;;;;;;;;5.10;92.50;;;;;;5084227;28;19908;-69
2022/04/05 03:12:29;;;;;;;;;;;5.00;92.70;;;;;;5083954;28;19915;-69
2022/04/05 03:14:55;;;;;;;;;;;5.00;93.00;;;;;;5084131;28;20111;-70
2022/04/05 03:17:21;;;;;;;;;;;5.00;93.10;;;;;;5083927;28;19924;-69
2022/04/05 03:19:46;;;;;;;;;;;4.90;93.40;;;;;;5071865;28;19940;-69
2022/04/05 03:22:12;;;;;;;;;;;4.90;93.60;;;;;;5072152;28;19908;-69
2022/04/05 03:24:38;;;;;;;;;;;4.90;93.10;;;;;;5083563;28;19913;-69
2022/04/05 03:27:03;;;;;;;;;;;4.90;93.50;;;;;;5083877;28;19908;-68
2022/04/05 03:29:29;;;;;;;;;;;4.90;93.60;;;;;;5083509;28;19909;-69
2022/04/05 03:31:55;;;;;;;;;;;4.80;93.70;;;;;;5083244;28;19979;-69
2022/04/05 03:34:21;;;;;;;;;;;4.80;93.70;;;;;;5083751;28;20204;-69
2022/04/05 03:36:47;;;;;;;;;;;4.80;94.20;;;;;;5083149;28;19912;-69
2022/04/05 03:39:13;;;;;;;;;;;4.80;94.50;;;;;;5083317;28;19943;-69
2022/04/05 03:41:40;;;;;;;;;;;4.80;94.00;;;;;;5083001;28;19955;-69
2022/04/05 03:44:06;;;;;;;;;;;4.80;94.20;;;;;;5083417;28;19920;-70
2022/04/05 03:46:31;;;;;;;;;;;4.80;94.40;;;;;;5076012;28;19951;-70
2022/04/05 03:48:57;;;;;;;;;;;4.80;94.50;;;;;;5045296;28;20147;-70
2022/04/05 03:51:23;;;;;;;;;;;4.80;94.40;;;;;;5062855;28;19954;-70
2022/04/05 03:53:48;;;;;;;;;;;4.80;94.50;;;;;;5062795;28;20203;-70
2022/04/05 03:56:14;;;;;;;;;;;4.80;94.60;;;;;;5063367;28;19972;-70
2022/04/05 03:58:40;;;;;;;;;;;4.80;94.50;;;;;;5045199;28;19978;-69
2022/04/05 04:01:06;;;;;;;;;;;4.80;94.60;;;;;;5063096;28;19916;-70
2022/04/05 04:03:36;;;;;;;;;;;4.80;94.70;;;;;;5063076;28;19909;-69
2022/04/05 04:06:01;;;;;;;;;;;4.80;94.70;;;;;;5063174;28;19984;-69
2022/04/05 04:08:27;;;;;;;;;;;4.80;94.80;;;;;;5076709;28;19932;-70
2022/04/05 04:10:53;;;;;;;;;;;4.80;94.80;;;;;;5082781;28;19954;-69
2022/04/05 04:13:19;;;;;;;;;;;4.80;94.80;;;;;;5083074;28;20004;-69
2022/04/05 04:15:44;;;;;;;;;;;4.70;95.10;;;;;;5082943;28;20249;-69
2022/04/05 04:18:10;;;;;;;;;;;4.80;95.10;;;;;;5082840;28;19912;-69
2022/04/05 04:20:38;;;;;;;;;;;4.70;95.20;;;;;;5064812;28;20229;-69
2022/04/05 04:23:04;;;;;;;;;;;4.80;95.50;;;;;;5082005;28;19908;-69
2022/04/05 04:25:31;;;;;;;;;;;4.80;95.60;;;;;;5075779;28;19992;-69
2022/04/05 04:27:57;;;;;;;;;;;4.70;95.30;;;;;;5076109;28;19949;-70
2022/04/05 04:30:23;;;;;;;;;;;4.70;95.60;;;;;;5082493;28;20093;-69
2022/04/05 04:32:48;;;;;;;;;;;4.70;95.60;;;;;;5082456;28;19981;-67
2022/04/05 04:35:14;;;;;;;;;;;4.80;95.80;;;;;;5082844;28;19954;-68
2022/04/05 04:37:40;;;;;;;;;;;4.80;95.60;;;;;;5082168;28;19912;-68
2022/04/05 04:40:06;;;;;;;;;;;4.80;95.60;;;;;;5082114;28;19916;-67
2022/04/05 04:42:33;;;;;;;;;;;4.80;95.60;;;;;;5080426;28;19927;-68
2022/04/05 04:45:26;;;;;;;;;;;4.80;95.50;;;;;;5079495;28;19952;-73
2022/04/05 04:47:52;;;;;;;;;;;4.80;95.50;;;;;;5060733;28;19951;-68
2022/04/05 04:50:17;;;;;;;;;;;4.80;95.40;;;;;;5082050;28;19912;-68
2022/04/05 04:52:43;;;;;;;;;;;4.90;95.30;;;;;;5082648;28;19916;-69
2022/04/05 04:55:09;;;;;;;;;;;4.80;95.50;;;;;;5081580;28;19912;-68
2022/04/05 04:57:34;;;;;;;;;;;4.90;95.30;;;;;;5082162;28;19912;-68
2022/04/05 05:00:00;;;;;;;;;;;4.90;95.40;;;;;;5082542;28;20345;-68
2022/04/05 05:02:26;;;;;;;;;;;4.90;95.60;;;;;;5082542;28;20214;-68
2022/04/05 05:04:52;;;;;;;;;;;4.90;95.60;;;;;;5082464;28;19960;-67
2022/04/05 05:07:18;;;;;;;;;;;4.90;95.70;;;;;;5080968;28;20004;-67
2022/04/05 05:09:44;;;;;;;;;;;5.00;95.60;;;;;;5080687;28;19909;-68
2022/04/05 05:12:10;;;;;;;;;;;5.00;95.70;;;;;;5079372;28;19934;-67
2022/04/05 05:14:39;;;;;;;;;;;5.00;95.80;;;;;;5078117;28;19992;-67
2022/04/05 05:17:05;;;;;;;;;;;5.00;95.80;;;;;;5064537;28;20111;-67
2022/04/05 05:19:31;;;;;;;;;;;5.00;95.70;;;;;;5081978;28;19921;-67
2022/04/05 05:21:57;;;;;;;;;;;5.00;95.70;;;;;;5081989;28;19909;-67
2022/04/05 05:24:22;;;;;;;;;;;5.00;95.90;;;;;;5081963;28;20222;-67
2022/04/05 05:26:48;;;;;;;;;;;5.00;95.50;;;;;;5064233;28;19908;-67
2022/04/05 05:29:15;;;;;;;;;;;5.10;95.40;;;;;;5082029;28;19908;-67
2022/04/05 05:31:41;;;;;;;;;;;5.10;95.40;;;;;;5079098;28;19920;-68
2022/04/05 05:34:07;;;;;;;;;;;5.10;95.10;;;;;;5075777;28;19924;-67
2022/04/05 05:36:32;;;;;;;;;;;5.10;94.90;;;;;;5077211;28;19912;-68
2022/04/05 05:38:58;;;;;;;;;;;5.20;94.90;;;;;;5080852;28;19912;-66
2022/04/05 05:41:24;;;;;;;;;;;5.20;94.80;;;;;;5081738;28;19930;-67
2022/04/05 05:43:49;;;;;;;;;;;5.20;94.90;;;;;;5081867;28;19961;-68
2022/04/05 05:46:15;;;;;;;;;;;5.20;94.80;;;;;;5081850;28;20207;-69
2022/04/05 05:48:42;;;;;;;;;;;5.30;94.70;;;;;;5067952;28;20355;-69
2022/04/05 05:51:08;;;;;;;;;;;5.30;94.70;;;;;;5061582;28;19952;-66
2022/04/05 05:53:34;;;;;;;;;;;5.30;94.50;;;;;;5064867;28;19916;-67
2022/04/05 05:55:59;;;;;;;;;;;5.30;94.50;;;;;;5065591;28;19913;-68
2022/04/05 05:58:25;;;;;;;;;;;5.40;94.30;;;;;;5065392;28;19909;-66
2022/04/05 06:00:51;;;;;;;;;;;5.30;94.60;;;;;;5065132;28;20151;-66
2022/04/05 06:03:17;;;;;;;;;;;5.40;94.40;;;;;;5076717;28;19908;-67
2022/04/05 06:05:43;;;;;;;;;;;5.40;94.30;;;;;;5067364;28;19919;-68
2022/04/05 06:08:09;;;;;;;;;;;5.40;94.30;;;;;;5084995;28;20072;-67
2022/04/05 06:10:35;;;;;;;;;;;5.50;94.20;;;;;;5085159;28;19928;-67
2022/04/05 06:13:01;;;;;;;;;;;5.50;94.30;;;;;;5067907;28;20174;-67
2022/04/05 06:15:27;;;;;;;;;;;5.50;94.40;;;;;;5085204;28;19912;-67
2022/04/05 06:17:52;;;;;;;;;;;5.50;94.10;;;;;;5084957;28;19916;-67
2022/04/05 06:20:20;;;;;;;;;;;5.50;94.00;;;;;;5085012;28;19908;-67
2022/04/05 06:22:52;;;;;;;;;;;5.60;94.00;;;;;;5084830;28;20262;-67
2022/04/05 06:25:23;;;;;;;;;;;5.50;93.80;;;;;;5084804;28;19916;-66
2022/04/05 06:27:48;;;;;;;;;;;5.50;94.00;;;;;;5067069;28;19908;-69
2022/04/05 06:30:15;;;;;;;;;;;5.60;94.00;;;;;;5083555;28;19984;-69
2022/04/05 06:32:41;;;;;;;;;;;5.50;94.00;;;;;;5084804;28;19916;-66
2022/04/05 06:35:07;;;;;;;;;;;5.50;94.20;;;;;;5084938;28;19909;-66
2022/04/05 06:37:33;;;;;;;;;;;5.50;94.10;;;;;;5083601;28;19912;-66
2022/04/05 06:39:59;;;;;;;;;;;5.60;94.30;;;;;;5084041;28;19979;-66
2022/04/05 06:42:25;;;;;;;;;;;5.60;94.50;;;;;;5084348;28;20100;-66
2022/04/05 06:44:52;;;;;;;;;;;5.50;94.70;;;;;;5084545;28;19927;-66
2022/04/05 06:47:18;;;;;;;;;;;5.50;94.90;;;;;;5084645;28;19947;-67
2022/04/05 06:49:44;;;;;;;;;;;5.50;94.90;;;;;;5084736;28;19931;-68
2022/04/05 06:52:09;;;;;;;;;;;5.50;95.00;;;;;;5084191;28;20207;-68
2022/04/05 06:54:35;;;;;;;;;;;5.50;95.20;;;;;;5084071;28;19920;-68
2022/04/05 06:57:01;;;;;;;;;;;5.50;95.00;;;;;;5084383;28;19916;-69
2022/04/05 06:59:26;;;;;;;;;;;5.50;95.20;;;;;;5084349;28;20194;-69
2022/04/05 07:01:52;;;;;;;;;;;5.40;95.20;;;;;;5084202;28;19916;-69
2022/04/05 07:04:18;;;;;;;;;;;5.50;95.50;;;;;;5083601;28;19995;-70
2022/04/05 07:06:43;;;;;;;;;;;5.50;95.60;;;;;;5084064;28;20166;-69
2022/04/05 07:09:09;;;;;;;;;;;5.40;95.60;;;;;;5083939;28;19932;-68
2022/04/05 07:11:35;;;;;;;;;;;5.50;96.10;;;;;;5083905;28;19909;-69
2022/04/05 07:14:01;;;;;;;;;;;5.50;95.80;;;;;;5083200;28;19916;-68
2022/04/05 07:16:26;;;;;;;;;;;5.50;95.80;;;;;;5066488;28;19943;-69
2022/04/05 07:18:52;;;;;;;;;;;5.50;95.90;;;;;;5083780;28;19909;-69
2022/04/05 07:21:20;;;;;;;;;;;5.50;95.90;;;;;;5084083;28;19920;-69
2022/04/05 07:23:47;;;;;;;;;;;5.60;96.00;;;;;;5084307;28;20025;-70
2022/04/05 07:26:13;;;;;;;;;;;5.50;96.10;;;;;;5066135;28;20145;-69
2022/04/05 07:28:39;;;;;;;;;;;5.60;96.40;;;;;;5083773;28;20196;-71
2022/04/05 07:31:04;;;;;;;;;;;5.60;96.20;;;;;;5083430;28;19912;-70
2022/04/05 07:33:30;;;;;;;;;;;5.60;96.30;;;;;;5083749;28;20010;-69
2022/04/05 07:35:56;;;;;;;;;;;5.60;96.70;;;;;;5083783;28;20174;-69
2022/04/05 07:38:21;;;;;;;;;;;5.60;96.30;;;;;;5082522;28;19920;-69
2022/04/05 07:40:50;;;;;;;;;;;5.60;96.40;;;;;;5083217;28;19912;-70
2022/04/05 07:43:16;;;;;;;;;;;5.60;96.40;;;;;;5083350;28;20006;-70
2022/04/05 07:45:42;;;;;;;;;;;5.60;96.10;;;;;;5081955;28;19912;-70
2022/04/05 07:48:08;;;;;;;;;;;5.70;96.30;;;;;;5083141;28;20039;-69
2022/04/05 07:50:33;;;;;;;;;;;5.60;96.10;;;;;;5083660;28;19908;-65
2022/04/05 07:52:59;;;;;;;;;;;5.70;96.30;;;;;;5082972;28;20250;-69
2022/04/05 07:55:25;;;;;;;;;;;5.80;96.40;;;;;;5083070;28;19923;-66
2022/04/05 07:57:50;;;;;;;;;;;5.70;96.20;;;;;;5082699;28;19916;-65
2022/04/05 08:00:16;;;;;;;;;;;5.80;96.20;;;;;;5083108;28;19943;-65
2022/04/05 08:02:42;;;;;;;;;;;5.80;96.20;;;;;;5082866;28;19913;-65
2022/04/05 08:05:08;;;;;;;;;;;5.80;96.10;;;;;;5083158;28;19981;-64
2022/04/05 08:07:34;;;;;;;;;;;5.90;96.10;;;;;;5082361;28;20085;-64
2022/04/05 08:10:00;;;;;;;;;;;5.90;95.90;;;;;;5082540;28;20014;-68
2022/04/05 08:12:25;;;;;;;;;;;5.90;95.80;;;;;;5082919;28;19915;-67
2022/04/05 08:14:51;;;;;;;;;;;5.90;95.90;;;;;;5083007;28;19945;-67
2022/04/05 08:17:17;;;;;;;;;;;5.90;96.10;;;;;;5082608;28;19940;-68
2022/04/05 08:19:42;;;;;;;;;;;6.00;96.00;;;;;;5082713;28;19991;-66
2022/04/05 08:22:08;;;;;;;;;;;6.00;95.70;;;;;;5082376;28;19908;-66
2022/04/05 08:24:35;;;;;;;;;;;6.10;95.60;;;;;;5082548;28;20120;-66
2022/04/05 08:27:00;;;;;;;;;;;6.10;95.80;;;;;;5082688;28;19908;-66
2022/04/05 08:29:26;;;;;;;;;;;6.00;96.10;;;;;;5082861;28;20160;-65
2022/04/05 08:31:52;;;;;;;;;;;6.10;95.90;;;;;;5082320;28;20269;-65
2022/04/05 08:34:18;;;;;;;;;;;6.10;95.80;;;;;;5082377;28;19916;-65
2022/04/05 08:36:44;;;;;;;;;;;6.10;95.90;;;;;;5082974;28;19908;-65
2022/04/05 08:39:10;;;;;;;;;;;6.20;95.60;;;;;;5080560;28;19913;-65
2022/04/05 08:41:36;;;;;;;;;;;6.20;95.30;;;;;;5081245;28;19923;-65
2022/04/05 08:44:02;;;;;;;;;;;6.30;95.40;;;;;;5081562;28;19917;-65
2022/04/05 08:46:29;;;;;;;;;;;6.30;95.20;;;;;;5082315;28;20215;-65
2022/04/05 08:48:55;;;;;;;;;;;6.30;95.00;;;;;;5064597;28;19913;-65
2022/04/05 08:51:21;;;;;;;;;;;6.40;94.90;;;;;;5064408;28;19983;-65
2022/04/05 08:53:46;;;;;;;;;;;6.30;95.10;;;;;;5082402;28;19908;-65
2022/04/05 08:56:14;;;;;;;;;;;6.40;95.10;;;;;;5082572;28;19982;-65
2022/04/05 08:58:39;;;;;;;;;;;6.40;94.90;;;;;;5082081;28;19955;-66
2022/04/05 09:01:05;;;;;;;;;;;6.40;95.10;;;;;;5082251;28;19916;-65
2022/04/05 09:03:33;;;;;;;;;;;6.40;95.10;;;;;;5082451;28;19927;-65
2022/04/05 09:05:58;;;;;;;;;;;6.40;94.80;;;;;;5082390;28;20092;-66
2022/04/05 09:08:24;;;;;;;;;;;6.40;94.90;;;;;;5063482;28;19909;-65
2022/04/05 09:11:11;;;;;;;;;;;6.50;94.90;;;;;;5081834;28;19908;-66
2022/04/05 09:13:37;;;;;;;;;;;6.50;94.90;;;;;;5082689;28;19916;-65
2022/04/05 09:26:11;;;;;;;;;;;6.70;94.60;;;;;;5082192;28;19965;-66
2022/04/05 09:28:41;;;;;;;;;;;6.70;94.20;;;;;;5086322;28;19923;-66
2022/04/05 09:31:08;;;;;;;;;;;6.60;94.30;;;;;;5086001;28;20022;-66
2022/04/05 09:33:36;;;;;;;;;;;6.70;94.60;;;;;;5086064;28;19915;-66
2022/04/05 09:36:10;;;;;;;;;;;6.70;94.30;;;;;;5085950;28;19921;-66
2022/04/05 09:38:36;;;;;;;;;;;6.80;94.20;;;;;;5084868;28;20116;-65
2022/04/05 09:41:28;;;;;;;;;;;6.80;94.10;;;;;;5079297;28;19920;-66
2022/04/05 09:44:00;;;;;;;;;;;6.80;94.40;;;;;;5076712;28;19931;-66
2022/04/05 09:46:26;;;;;;;;;;;6.80;94.60;;;;;;5085987;28;19909;-65
2022/04/05 09:49:01;;;;;;;;;;;6.90;94.40;;;;;;5085555;28;19912;-65
2022/04/05 09:51:26;;;;;;;;;;;6.90;94.20;;;;;;5077035;28;19935;-66
2022/04/05 09:53:54;;;;;;;;;;;6.90;94.50;;;;;;5079393;28;19975;-65
2022/04/05 09:56:26;;;;;;;;;;;6.90;94.40;;;;;;5077547;28;19984;-66
2022/04/05 09:58:56;;;;;;;;;;;6.90;94.40;;;;;;5066947;28;19916;-66
2022/04/05 10:01:24;;;;;;;;;;;7.00;94.40;;;;;;5065128;28;19947;-65
2022/04/05 10:04:03;;;;;;;;;;;7.00;94.50;;;;;;5065547;28;19931;-66
2022/04/05 10:06:30;;;;;;;;;;;7.00;94.40;;;;;;5065667;28;20193;-66
2022/04/05 10:08:57;;;;;;;;;;;7.10;94.20;;;;;;5070155;28;19978;-66
2022/04/05 10:11:24;;;;;;;;;;;7.10;94.20;;;;;;5085658;28;19908;-67
2022/04/05 10:13:50;;;;;;;;;;;7.10;94.30;;;;;;5085128;28;20107;-66
2022/04/05 10:16:16;;;;;;;;;;;7.20;94.00;;;;;;5050909;28;19938;-66
2022/04/05 10:18:42;;;;;;;;;;;7.30;93.90;;;;;;5084071;28;20142;-66
2022/04/05 10:21:07;;;;;;;;;;;7.40;93.50;;;;;;5078722;28;20011;-66
2022/04/05 10:23:34;;;;;;;;;;;7.40;93.80;;;;;;5041142;28;19913;-67
2022/04/05 10:26:00;;;;;;;;;;;7.40;93.60;;;;;;5067513;28;19923;-66
2022/04/05 10:28:28;;;;;;;;;;;7.40;93.60;;;;;;5082962;28;19916;-66
2022/04/05 10:31:09;;;;;;;;;;;7.50;93.60;;;;;;5084947;28;19916;-66
2022/04/05 10:34:00;;;;;;;;;;;7.50;93.60;;;;;;5085130;28;19909;-66
2022/04/05 10:36:26;;;;;;;;;;;7.60;93.30;;;;;;5069795;28;19939;-66
2022/04/05 10:39:14;;;;;;;;;;;7.60;93.00;;;;;;5082680;28;19912;-66
2022/04/05 10:41:40;;;;;;;;;;;7.60;93.30;;;;;;5085201;28;19909;-66
2022/04/05 10:44:24;;;;;;;;;;;7.60;93.50;;;;;;5085193;28;20269;-66
2022/04/05 10:46:54;;;;;;;;;;;7.50;93.60;;;;;;5085197;28;19945;-66
2022/04/05 10:49:44;;;;;;;;;;;7.50;93.70;;;;;;5085093;28;19908;-67
2022/04/05 10:52:11;;;;;;;;;;;7.50;93.70;;;;;;5084995;28;19953;-67
2022/04/05 10:54:43;;;;;;;;;;;7.50;93.70;;;;;;5084783;28;19924;-67
2022/04/05 10:57:37;;;;;;;;;;;7.50;93.60;;;;;;5084903;28;19912;-66
2022/04/05 11:00:06;;;;;;;;;;;7.60;93.30;;;;;;5085132;28;19904;-66
2022/04/05 11:03:01;;;;;;;;;;;7.60;93.50;;;;;;5081011;28;20128;-65
2022/04/05 11:05:36;;;;;;;;;;;7.70;93.40;;;;;;5084702;28;19919;-65
2022/04/05 11:08:05;;;;;;;;;;;7.80;93.30;;;;;;5066546;28;20146;-66
2022/04/05 11:10:36;;;;;;;;;;;7.80;93.30;;;;;;5084093;28;19924;-66
2022/04/05 11:13:09;;;;;;;;;;;7.80;93.10;;;;;;5084448;28;20116;-66
2022/04/05 11:15:53;;;;;;;;;;;7.80;93.10;;;;;;5084482;28;19916;-67
2022/04/05 11:18:21;;;;;;;;;;;7.80;93.20;;;;;;5084383;28;19931;-67
2022/04/05 11:20:47;;;;;;;;;;;7.70;93.30;;;;;;5084089;28;19917;-65
2022/04/05 11:23:14;;;;;;;;;;;7.80;93.40;;;;;;5084204;28;19908;-65
2022/04/05 11:25:40;;;;;;;;;;;7.80;93.30;;;;;;5084118;28;19931;-65
2022/04/05 11:28:13;;;;;;;;;;;7.80;93.20;;;;;;5083963;28;19992;-66
2022/04/05 11:30:49;;;;;;;;;;;7.80;93.20;;;;;;5083735;28;19916;-65
2022/04/05 11:33:18;;;;;;;;;;;7.70;93.30;;;;;;5084127;28;19916;-65
2022/04/05 11:35:57;;;;;;;;;;;7.70;93.50;;;;;;5084223;28;19940;-65
2022/04/05 11:38:22;;;;;;;;;;;7.70;93.70;;;;;;5083367;28;19958;-65
2022/04/05 11:40:54;;;;;;;;;;;7.80;93.80;;;;;;5082556;28;19912;-65
2022/04/05 11:43:22;;;;;;;;;;;7.80;94.00;;;;;;5083600;28;19908;-65
2022/04/05 11:45:48;;;;;;;;;;;7.80;94.00;;;;;;5083352;28;19981;-65
2022/04/05 11:48:19;;;;;;;;;;;7.90;93.70;;;;;;5083524;28;20026;-66
2022/04/05 11:50:45;;;;;;;;;;;7.90;93.80;;;;;;5081718;28;19908;-65
2022/04/05 11:53:20;;;;;;;;;;;7.90;93.60;;;;;;5083430;28;19958;-65
2022/04/05 11:56:05;;;;;;;;;;;8.00;93.40;;;;;;5082213;28;19916;-65
2022/04/05 11:58:34;;;;;;;;;;;8.00;92.90;;;;;;5083248;28;20212;-65
2022/04/05 12:01:04;;;;;;;;;;;8.10;92.90;;;;;;5083077;28;19950;-65
2022/04/05 12:03:38;;;;;;;;;;;8.10;92.90;;;;;;5083129;28;19946;-65
2022/04/05 12:06:04;;;;;;;;;;;8.20;93.20;;;;;;5083044;28;19920;-66
2022/04/05 12:08:30;;;;;;;;;;;8.20;93.10;;;;;;5082845;28;19971;-66
2022/04/05 12:10:56;;;;;;;;;;;8.30;93.10;;;;;;5064738;28;19917;-67
2022/04/05 12:13:29;;;;;;;;;;;8.40;92.80;;;;;;5082604;28;19915;-67
2022/04/05 12:15:59;;;;;;;;;;;8.30;92.80;;;;;;5083036;28;20010;-67
2022/04/05 12:18:28;;;;;;;;;;;8.20;92.80;;;;;;5083045;28;19912;-67
2022/04/05 12:21:06;;;;;;;;;;;8.30;92.60;;;;;;5082554;28;19912;-66
2022/04/05 12:23:37;;;;;;;;;;;8.30;92.90;;;;;;5082967;28;20196;-67
2022/04/05 12:26:23;;;;;;;;;;;8.30;93.00;;;;;;5082689;28;19979;-67
2022/04/05 12:28:53;;;;;;;;;;;8.30;92.80;;;;;;5082643;28;19909;-67
2022/04/05 12:31:28;;;;;;;;;;;8.40;92.90;;;;;;5082639;28;19909;-66
2022/04/05 12:34:03;;;;;;;;;;;8.40;92.70;;;;;;5082956;28;19939;-66
2022/04/05 12:36:36;;;;;;;;;;;8.40;92.80;;;;;;5082256;28;19909;-66
2022/04/05 12:39:06;;;;;;;;;;;8.40;93.00;;;;;;5081714;28;19912;-66
2022/04/05 12:41:39;;;;;;;;;;;8.40;93.00;;;;;;5082197;28;19947;-66
2022/04/05 12:44:15;;;;;;;;;;;8.40;93.00;;;;;;5082503;28;19934;-66
2022/04/05 12:46:48;;;;;;;;;;;8.30;93.30;;;;;;5082711;28;19954;-66
2022/04/05 12:49:43;;;;;;;;;;;8.40;93.10;;;;;;5082793;28;19908;-66
2022/04/05 12:52:12;;;;;;;;;;;8.40;93.00;;;;;;5082407;28;20014;-67
2022/04/05 12:54:47;;;;;;;;;;;8.40;93.00;;;;;;5082452;28;19950;-67
2022/04/05 12:57:32;;;;;;;;;;;8.50;93.00;;;;;;5082718;28;19908;-67
2022/04/05 13:00:16;;;;;;;;;;;8.60;92.70;;;;;;5083138;28;19908;-67
2022/04/05 13:02:53;;;;;;;;;;;8.60;92.70;;;;;;5081698;28;19916;-67
2022/04/05 13:08:09;;;;;;;;;;;8.60;92.90;;;;;;5082403;28;20231;-67
2022/04/05 13:10:47;;;;;;;;;;;8.60;92.90;;;;;;5081941;28;19935;-66
2022/04/05 13:13:26;;;;;;;;;;;8.50;93.00;;;;;;5082224;28;19912;-67
2022/04/05 13:16:03;;;;;;;;;;;8.50;93.10;;;;;;5082366;28;20239;-67
2022/04/05 13:18:42;;;;;;;;;;;8.50;93.10;;;;;;5082420;28;19912;-65
2022/04/05 13:21:17;;;;;;;;;;;8.60;93.10;;;;;;5080735;28;19915;-67
2022/04/05 13:23:58;;;;;;;;;;;8.70;93.10;;;;;;5082386;28;19909;-66
2022/04/05 13:26:25;;;;;;;;;;;8.70;93.00;;;;;;5081937;28;19916;-67
2022/04/05 13:29:07;;;;;;;;;;;8.70;92.90;;;;;;5082116;28;19917;-67
2022/04/05 13:31:34;;;;;;;;;;;8.70;92.90;;;;;;5081855;28;19936;-67
2022/04/05 13:34:00;;;;;;;;;;;8.80;92.70;;;;;;5082116;28;19954;-67
2022/04/05 13:36:26;;;;;;;;;;;8.70;92.90;;;;;;5064464;28;19927;-67
2022/04/05 13:38:52;;;;;;;;;;;8.70;93.00;;;;;;5081161;28;19951;-67
2022/04/05 13:41:17;;;;;;;;;;;8.70;93.20;;;;;;5081514;28;19909;-67
2022/04/05 13:43:43;;;;;;;;;;;8.70;93.20;;;;;;5082348;28;20131;-67
2022/04/05 13:46:09;;;;;;;;;;;8.70;93.00;;;;;;5081871;28;20257;-67
2022/04/05 13:48:35;;;;;;;;;;;8.80;93.10;;;;;;5080702;28;19975;-67
2022/04/05 13:51:00;;;;;;;;;;;8.70;93.10;;;;;;5081641;28;19952;-67
2022/04/05 13:53:26;;;;;;;;;;;8.80;93.10;;;;;;5081897;28;19987;-67
2022/04/05 13:55:52;;;;;;;;;;;8.80;93.00;;;;;;5081805;28;19908;-67
2022/04/05 13:58:17;;;;;;;;;;;8.90;92.90;;;;;;5081831;28;19972;-67
2022/04/05 14:00:43;;;;;;;;;;;8.90;93.30;;;;;;5081601;28;19908;-67
2022/04/05 14:03:09;;;;;;;;;;;8.90;93.00;;;;;;5081743;28;19908;-67
2022/04/05 14:05:34;;;;;;;;;;;8.90;92.80;;;;;;5081618;28;20226;-67
2022/04/05 14:08:00;;;;;;;;;;;8.90;92.90;;;;;;5081584;28;19916;-67
2022/04/05 14:10:26;;;;;;;;;;;8.90;92.90;;;;;;5081529;28;20026;-65
2022/04/05 14:12:51;;;;;;;;;;;8.90;93.00;;;;;;5082413;28;19962;-65
2022/04/05 14:15:17;;;;;;;;;;;9.00;92.90;;;;;;5085309;28;19908;-65
2022/04/05 14:17:43;;;;;;;;;;;9.00;92.70;;;;;;5085106;28;19909;-66
2022/04/05 14:20:09;;;;;;;;;;;9.10;92.60;;;;;;5085040;28;20223;-65
2022/04/05 14:22:35;;;;;;;;;;;9.10;92.70;;;;;;5083752;28;19917;-65
2022/04/05 14:25:02;;;;;;;;;;;9.10;92.60;;;;;;5084746;28;19925;-66
2022/04/05 14:27:29;;;;;;;;;;;9.10;92.70;;;;;;5085011;28;19975;-66
2022/04/05 14:29:54;;;;;;;;;;;9.10;92.80;;;;;;5085009;28;20107;-65
2022/04/05 14:32:20;;;;;;;;;;;9.10;93.00;;;;;;5084583;28;19908;-65
2022/04/05 14:34:46;;;;;;;;;;;9.10;93.10;;;;;;5084854;28;19917;-66
2022/04/05 14:37:11;;;;;;;;;;;9.00;93.20;;;;;;5084667;28;20266;-66
2022/04/05 14:39:37;;;;;;;;;;;9.00;93.10;;;;;;5084537;28;19971;-66
2022/04/05 14:42:03;;;;;;;;;;;8.90;93.30;;;;;;5084496;28;19946;-66
2022/04/05 14:44:29;;;;;;;;;;;8.90;93.50;;;;;;5084702;28;19920;-66
2022/04/05 14:46:55;;;;;;;;;;;8.90;93.50;;;;;;5084616;28;20196;-66
2022/04/05 14:49:21;;;;;;;;;;;8.90;93.50;;;;;;5083868;28;20023;-66